Time;durP1;ratioP1;P1;durP2;ratioP2;P2;SDS_P1;SDS_P2;PMS_P1;PMS_P2;Temp;Humidity;BMP_temperature;BMP_pressure;BME280_temperature;BME280_humidity;BME280_pressure;Samples;Min_cycle;Max_cycle;Signal;HPM_P1;HPM_P2
2023/03/20 00:01:12;;;;;;;;;;;;;;;21.57;26.21;98287.28;4903814;29;1982;-75
2023/03/20 00:03:37;;;;;;;;;;;;;;;21.81;25.94;98290.81;4903607;29;1117;-75
2023/03/20 00:06:03;;;;;;;;;;;;;;;22.02;25.48;98288.69;4904034;29;991;-75
2023/03/20 00:08:30;;;;;;;;;;;;;;;22.22;25.42;98288.63;4904018;29;1004;-75
2023/03/20 00:10:56;;;;;;;;;;;;;;;22.22;25.40;98280.94;4923322;29;1029;-75
2023/03/20 00:13:23;;;;;;;;;;;;;;;22.00;25.27;98279.84;4954410;29;940;-75
2023/03/20 00:15:49;;;;;;;;;;;;;;;21.67;26.09;98273.31;4938321;29;1426;-76
2023/03/20 00:18:17;;;;;;;;;;;;;;;21.61;25.91;98267.38;4922579;29;1025;-75
2023/03/20 00:20:43;;;;;;;;;;;;;;;21.94;25.71;98270.28;4922648;29;1907;-75
2023/03/20 00:23:08;;;;;;;;;;;;;;;22.01;25.77;98270.09;4922149;29;1006;-75
2023/03/20 00:25:35;;;;;;;;;;;;;;;22.10;25.43;98259.78;4938153;29;990;-75
2023/03/20 00:28:01;;;;;;;;;;;;;;;22.38;25.10;98268.00;4954820;28;949;-75
2023/03/20 00:30:28;;;;;;;;;;;;;;;21.76;25.76;98260.16;4960778;28;936;-75
2023/03/20 00:32:53;;;;;;;;;;;;;;;21.64;26.26;98258.00;4960666;28;1093;-76
2023/03/20 00:35:20;;;;;;;;;;;;;;;21.40;26.56;98259.34;4960662;28;979;-75
2023/03/20 00:37:46;;;;;;;;;;;;;;;21.78;26.30;98257.69;4944463;28;1205;-75
2023/03/20 00:40:12;;;;;;;;;;;;;;;22.18;25.46;98251.91;4976675;28;1977;-75
2023/03/20 00:42:40;;;;;;;;;;;;;;;22.22;25.18;98252.59;4944729;28;1299;-75
2023/03/20 00:45:08;;;;;;;;;;;;;;;22.03;25.46;98250.63;4960394;28;978;-75
2023/03/20 00:47:33;;;;;;;;;;;;;;;21.75;26.12;98244.38;4977198;28;949;-75
2023/03/20 00:50:01;;;;;;;;;;;;;;;21.51;26.13;98248.59;4981145;28;1107;-75
2023/03/20 00:52:27;;;;;;;;;;;;;;;21.84;26.13;98250.25;4981216;28;936;-75
2023/03/20 00:54:52;;;;;;;;;;;;;;;22.07;25.48;98251.31;4980519;28;1279;-76
2023/03/20 00:57:23;;;;;;;;;;;;;;;22.12;25.56;98247.19;4980440;28;1230;-75
2023/03/20 00:59:54;;;;;;;;;;;;;;;22.20;25.18;98257.13;4980839;28;956;-75
2023/03/20 01:02:20;;;;;;;;;;;;;;;21.77;25.87;98256.09;4996680;28;1046;-76
2023/03/20 01:04:47;;;;;;;;;;;;;;;21.69;26.02;98259.50;4964325;28;1235;-75
2023/03/20 01:07:13;;;;;;;;;;;;;;;21.41;26.65;98243.97;4964504;28;1200;-75
2023/03/20 01:09:38;;;;;;;;;;;;;;;21.88;25.91;98249.38;4996469;28;1008;-76
2023/03/20 01:12:04;;;;;;;;;;;;;;;21.88;25.78;98246.53;4996746;28;1262;-75
2023/03/20 01:14:29;;;;;;;;;;;;;;;22.00;25.82;98240.16;4964361;28;1342;-76
2023/03/20 01:16:55;;;;;;;;;;;;;;;21.90;25.77;98241.22;4980563;28;1336;-75
2023/03/20 01:19:20;;;;;;;;;;;;;;;21.81;25.77;98233.31;4997612;28;934;-75
2023/03/20 01:21:46;;;;;;;;;;;;;;;21.62;26.37;98237.81;4980561;28;1914;-75
2023/03/20 01:24:12;;;;;;;;;;;;;;;21.88;25.71;98229.53;4980162;28;1112;-75
2023/03/20 01:26:41;;;;;;;;;;;;;;;21.90;26.07;98230.69;4980262;28;978;-75
2023/03/20 01:29:19;;;;;;;;;;;;;;;22.09;25.52;98231.84;4980308;28;896;-75
2023/03/20 01:31:45;;;;;;;;;;;;;;;21.84;25.89;98233.25;4996374;28;1213;-75
2023/03/20 01:34:11;;;;;;;;;;;;;;;21.72;26.05;98224.66;4963426;28;1342;-77
2023/03/20 01:36:36;;;;;;;;;;;;;;;21.73;26.25;98221.38;4963496;28;1148;-75
2023/03/20 01:39:03;;;;;;;;;;;;;;;22.08;25.42;98224.59;4964123;28;1235;-75
2023/03/20 01:41:29;;;;;;;;;;;;;;;22.07;25.42;98222.97;4994845;28;1918;-75
2023/03/20 01:43:54;;;;;;;;;;;;;;;22.39;25.15;98218.59;4955995;29;1236;-76
2023/03/20 01:46:24;;;;;;;;;;;;;;;21.72;26.14;98224.66;4924290;29;1131;-75
2023/03/20 01:48:52;;;;;;;;;;;;;;;21.62;26.15;98225.72;4924532;29;1545;-75
2023/03/20 01:51:31;;;;;;;;;;;;;;;21.95;25.75;98220.88;4956004;29;1275;-75
2023/03/20 01:54:01;;;;;;;;;;;;;;;22.16;25.50;98219.56;4940429;29;1204;-75
2023/03/20 01:56:27;;;;;;;;;;;;;;;22.10;25.68;98216.44;4955811;29;1212;-75
2023/03/20 01:58:55;;;;;;;;;;;;;;;21.74;25.79;98214.47;4939890;29;1378;-75
2023/03/20 02:01:21;;;;;;;;;;;;;;;21.62;26.53;98208.72;4898696;29;1920;-75
2023/03/20 02:03:47;;;;;;;;;;;;;;;21.58;26.29;98209.59;4882756;29;1316;-75
2023/03/20 02:06:22;;;;;;;;;;;;;;;22.07;26.01;98212.47;4883178;29;1198;-76
2023/03/20 02:09:04;;;;;;;;;;;;;;;22.31;25.35;98210.25;4883138;29;1430;-76
2023/03/20 02:11:38;;;;;;;;;;;;;;;22.10;25.63;98211.59;4883128;29;1123;-75
2023/03/20 02:14:03;;;;;;;;;;;;;;;21.78;26.14;98203.84;4888752;29;1142;-76
2023/03/20 02:16:36;;;;;;;;;;;;;;;21.74;26.49;98197.47;4920819;29;1120;-75
2023/03/20 02:19:37;;;;;;;;;;;;;;;22.06;25.90;98204.38;4934945;29;1111;-76
2023/03/20 02:22:15;;;;;;;;;;;;;;;22.15;25.77;98201.75;4916784;29;1914;-75
2023/03/20 02:25:05;;;;;;;;;;;;;;;22.46;25.27;98193.66;4901918;29;1363;-76
2023/03/20 02:27:33;;;;;;;;;;;;;;;21.88;26.20;98199.19;4901477;29;1256;-76
2023/03/20 02:30:11;;;;;;;;;;;;;;;21.58;26.64;98191.81;4901441;29;1388;-75
2023/03/20 02:32:41;;;;;;;;;;;;;;;21.74;26.21;98188.97;4941608;29;1493;-76
2023/03/20 02:35:07;;;;;;;;;;;;;;;22.02;26.17;98190.34;4955528;29;970;-75
2023/03/20 02:37:44;;;;;;;;;;;;;;;22.07;25.80;98188.97;4955352;29;987;-76
2023/03/20 02:40:15;;;;;;;;;;;;;;;22.03;26.10;98189.09;4939572;29;1974;-75
2023/03/20 02:42:43;;;;;;;;;;;;;;;21.90;25.80;98191.03;4939325;29;1202;-76
2023/03/20 02:45:09;;;;;;;;;;;;;;;21.57;26.55;98195.88;4939918;29;994;-75
2023/03/20 02:47:47;;;;;;;;;;;;;;;21.86;26.22;98187.47;4942946;29;1266;-75
2023/03/20 02:50:45;;;;;;;;;;;;;;;22.04;25.79;98184.22;4943567;29;1241;-75
2023/03/20 02:53:16;;;;;;;;;;;;;;;22.04;25.88;98178.53;4886355;29;1331;-75
2023/03/20 02:55:55;;;;;;;;;;;;;;;21.73;25.91;98178.91;4886094;29;1260;-76
2023/03/20 02:58:34;;;;;;;;;;;;;;;21.64;26.27;98177.91;4865333;29;1002;-76
2023/03/20 03:01:08;;;;;;;;;;;;;;;21.61;26.45;98171.13;4886217;29;1895;-75
2023/03/20 03:03:37;;;;;;;;;;;;;;;21.72;26.24;98174.47;4901835;29;1220;-75
2023/03/20 03:06:21;;;;;;;;;;;;;;;22.12;25.93;98168.63;4883101;29;1567;-75
2023/03/20 03:08:48;;;;;;;;;;;;;;;22.01;25.57;98162.41;4898525;29;1306;-75
2023/03/20 03:11:14;;;;;;;;;;;;;;;21.50;26.65;98156.38;4899013;29;958;-75
2023/03/20 03:13:41;;;;;;;;;;;;;;;21.46;26.76;98155.69;4883238;29;1240;-75
2023/03/20 03:16:09;;;;;;;;;;;;;;;21.85;26.12;98166.06;4898464;29;1187;-75
2023/03/20 03:18:34;;;;;;;;;;;;;;;22.20;25.47;98170.03;4883053;29;987;-76
2023/03/20 03:21:01;;;;;;;;;;;;;;;22.15;25.78;98167.75;4898275;29;1960;-75
2023/03/20 03:23:36;;;;;;;;;;;;;;;21.88;25.62;98165.19;4898303;29;1176;-75
2023/03/20 03:26:01;;;;;;;;;;;;;;;21.54;26.49;98169.22;4867184;29;985;-75
2023/03/20 03:28:36;;;;;;;;;;;;;;;21.48;26.54;98171.00;4898940;29;1358;-75
2023/03/20 03:31:03;;;;;;;;;;;;;;;21.75;26.27;98173.56;4917207;29;1236;-75
2023/03/20 03:33:29;;;;;;;;;;;;;;;21.96;25.93;98166.56;4917111;29;1106;-75
2023/03/20 03:35:58;;;;;;;;;;;;;;;22.15;25.56;98173.41;4939983;28;1126;-75
2023/03/20 03:38:23;;;;;;;;;;;;;;;21.75;25.93;98179.25;4966105;28;1158;-75
2023/03/20 03:40:52;;;;;;;;;;;;;;;21.67;25.99;98183.50;4998569;28;1977;-76
2023/03/20 03:43:20;;;;;;;;;;;;;;;21.87;26.34;98179.81;4977367;28;1331;-75
2023/03/20 03:45:48;;;;;;;;;;;;;;;22.03;25.56;98176.94;4945542;28;1061;-75
2023/03/20 03:48:15;;;;;;;;;;;;;;;22.12;25.53;98179.16;4961274;28;1215;-75
2023/03/20 03:50:47;;;;;;;;;;;;;;;22.09;25.89;98180.84;4961641;28;1349;-75
2023/03/20 03:53:14;;;;;;;;;;;;;;;21.72;25.98;98176.50;4945913;28;1129;-75
2023/03/20 03:55:43;;;;;;;;;;;;;;;21.70;25.92;98190.31;4961462;28;915;-76
2023/03/20 03:58:11;;;;;;;;;;;;;;;21.89;25.93;98189.44;4944517;28;1080;-77
2023/03/20 04:00:37;;;;;;;;;;;;;;;22.21;25.33;98194.31;4941645;29;1915;-75
2023/03/20 04:03:02;;;;;;;;;;;;;;;22.23;25.31;98191.84;4957650;28;1223;-75
2023/03/20 04:05:30;;;;;;;;;;;;;;;21.87;25.61;98185.47;4925965;29;1073;-76
2023/03/20 04:07:57;;;;;;;;;;;;;;;21.74;26.21;98177.66;4922885;29;1364;-75
2023/03/20 04:10:22;;;;;;;;;;;;;;;21.61;26.28;98184.47;4891493;29;1508;-75
2023/03/20 04:12:48;;;;;;;;;;;;;;;21.83;26.26;98186.34;4938718;29;967;-74
2023/03/20 04:15:14;;;;;;;;;;;;;;;21.97;25.78;98178.72;4906284;29;1063;-76
2023/03/20 04:17:40;;;;;;;;;;;;;;;21.96;25.79;98177.13;4903923;29;1230;-75
2023/03/20 04:20:07;;;;;;;;;;;;;;;22.18;25.56;98186.72;4919529;29;1973;-75
2023/03/20 04:22:33;;;;;;;;;;;;;;;21.76;26.06;98194.19;4903833;29;1133;-76
2023/03/20 04:25:05;;;;;;;;;;;;;;;21.61;26.48;98185.28;4919232;29;1129;-75
2023/03/20 04:27:31;;;;;;;;;;;;;;;21.59;26.37;98182.06;4903588;29;1674;-77
2023/03/20 04:29:59;;;;;;;;;;;;;;;21.91;25.92;98186.16;4903495;29;1277;-75
2023/03/20 04:32:43;;;;;;;;;;;;;;;22.22;25.69;98178.09;4955596;29;934;-75
2023/03/20 04:35:16;;;;;;;;;;;;;;;22.28;25.44;98190.50;4957223;29;815;-75
2023/03/20 04:37:47;;;;;;;;;;;;;;;21.81;25.86;98188.00;4942165;29;968;-75
2023/03/20 04:40:14;;;;;;;;;;;;;;;21.68;25.99;98196.41;4925845;29;1977;-75
2023/03/20 04:42:41;;;;;;;;;;;;;;;21.59;26.52;98193.38;4918732;29;1200;-75
2023/03/20 04:45:07;;;;;;;;;;;;;;;21.98;25.68;98191.66;4918823;29;921;-75
2023/03/20 04:47:36;;;;;;;;;;;;;;;21.93;26.00;98195.03;4918588;29;1169;-76
2023/03/20 04:50:02;;;;;;;;;;;;;;;22.26;25.28;98202.28;4903019;29;936;-75
2023/03/20 04:52:29;;;;;;;;;;;;;;;22.00;25.58;98195.63;4934278;29;1398;-75
2023/03/20 04:54:55;;;;;;;;;;;;;;;21.73;25.89;98190.22;4934419;29;920;-75
2023/03/20 04:57:20;;;;;;;;;;;;;;;21.47;26.47;98191.25;4934863;29;1160;-75
2023/03/20 04:59:46;;;;;;;;;;;;;;;21.64;26.51;98195.69;4921878;29;1322;-75
2023/03/20 05:02:13;;;;;;;;;;;;;;;21.90;25.68;98198.72;4937446;29;2001;-75
2023/03/20 05:04:40;;;;;;;;;;;;;;;21.89;26.04;98205.63;4906110;29;1247;-75
2023/03/20 05:07:06;;;;;;;;;;;;;;;22.29;25.33;98207.06;4905818;29;1380;-75
2023/03/20 05:09:54;;;;;;;;;;;;;;;22.26;25.29;98198.66;4936908;29;1255;-76
2023/03/20 05:12:21;;;;;;;;;;;;;;;21.78;25.99;98201.03;4906036;29;1140;-76
2023/03/20 05:15:25;;;;;;;;;;;;;;;21.48;26.26;98204.97;4880810;29;925;-75
2023/03/20 05:18:09;;;;;;;;;;;;;;;22.00;25.70;98200.50;4867406;29;994;-75
2023/03/20 05:21:01;;;;;;;;;;;;;;;22.28;25.42;98211.16;4861945;29;1899;-75
2023/03/20 05:23:42;;;;;;;;;;;;;;;22.23;25.46;98208.06;4861974;29;978;-75
2023/03/20 05:26:25;;;;;;;;;;;;;;;21.81;25.70;98205.81;4862038;29;1253;-75
2023/03/20 05:29:22;;;;;;;;;;;;;;;21.58;26.08;98200.28;4825473;29;1141;-75
2023/03/20 05:32:17;;;;;;;;;;;;;;;21.67;26.46;98200.50;4752781;30;1241;-76
2023/03/20 05:35:06;;;;;;;;;;;;;;;22.07;25.63;98194.63;4752916;30;991;-75
2023/03/20 05:37:54;;;;;;;;;;;;;;;22.24;25.37;98199.09;4753249;30;1669;-76
2023/03/20 05:40:28;;;;;;;;;;;;;;;21.86;25.83;98195.97;4752828;30;1907;-75
2023/03/20 05:43:23;;;;;;;;;;;;;;;21.66;25.96;98204.56;4711411;30;1067;-75
2023/03/20 05:45:48;;;;;;;;;;;;;;;21.73;26.24;98207.22;4732718;30;1038;-75
2023/03/20 05:48:43;;;;;;;;;;;;;;;22.07;25.73;98205.97;4764241;30;1362;-75
2023/03/20 05:51:32;;;;;;;;;;;;;;;22.10;25.50;98210.75;4717968;30;1079;-76
2023/03/20 05:54:05;;;;;;;;;;;;;;;21.99;25.63;98210.25;4717847;30;1115;-75
2023/03/20 05:56:48;;;;;;;;;;;;;;;21.62;26.30;98209.50;4716836;30;1139;-76
2023/03/20 05:59:34;;;;;;;;;;;;;;;21.52;26.42;98216.22;4734196;30;1114;-75
2023/03/20 06:02:19;;;;;;;;;;;;;;;22.06;25.80;98207.22;4716783;30;1981;-75
2023/03/20 06:04:55;;;;;;;;;;;;;;;22.23;25.19;98208.84;4713951;30;1290;-76
2023/03/20 06:07:29;;;;;;;;;;;;;;;22.10;25.41;98207.94;4698645;30;1369;-75
2023/03/20 06:09:59;;;;;;;;;;;;;;;21.82;25.90;98215.13;4749856;30;1264;-75
2023/03/20 06:12:25;;;;;;;;;;;;;;;21.57;26.39;98212.88;4768339;29;1284;-75
2023/03/20 06:14:51;;;;;;;;;;;;;;;21.44;26.38;98209.09;4755968;30;1268;-75
2023/03/20 06:17:17;;;;;;;;;;;;;;;21.87;26.12;98210.97;4745402;30;1454;-76
2023/03/20 06:19:48;;;;;;;;;;;;;;;22.02;25.63;98209.34;4758791;30;1397;-78
2023/03/20 06:22:13;;;;;;;;;;;;;;;22.29;25.28;98206.28;4780013;29;1990;-77
2023/03/20 06:24:39;;;;;;;;;;;;;;;21.85;25.59;98211.38;4802658;29;1289;-76
2023/03/20 06:27:05;;;;;;;;;;;;;;;21.70;26.05;98210.13;4773063;30;1299;-76
2023/03/20 06:29:30;;;;;;;;;;;;;;;21.44;26.41;98203.44;4836203;29;1316;-76
2023/03/20 06:32:07;;;;;;;;;;;;;;;22.14;25.50;98200.19;4839764;29;1336;-76
2023/03/20 06:34:33;;;;;;;;;;;;;;;22.16;25.68;98209.03;4805951;29;1280;-77
2023/03/20 06:36:59;;;;;;;;;;;;;;;22.23;25.20;98213.72;4791726;29;1255;-77
2023/03/20 06:39:24;;;;;;;;;;;;;;;21.91;25.73;98215.28;4817557;29;1203;-76
2023/03/20 06:41:51;;;;;;;;;;;;;;;21.56;26.34;98216.94;4876415;29;1994;-77
2023/03/20 06:44:21;;;;;;;;;;;;;;;21.47;26.54;98213.91;4878454;29;1124;-76
2023/03/20 06:47:05;;;;;;;;;;;;;;;21.98;25.74;98215.13;4884895;29;1040;-76
2023/03/20 06:49:31;;;;;;;;;;;;;;;22.26;25.45;98212.81;4867004;29;1008;-76
2023/03/20 06:51:58;;;;;;;;;;;;;;;22.35;25.37;98221.50;4898364;29;965;-73
2023/03/20 06:54:24;;;;;;;;;;;;;;;22.09;25.53;98217.69;4882670;29;1143;-75
2023/03/20 06:56:50;;;;;;;;;;;;;;;21.79;26.12;98218.81;4898422;29;1304;-74
2023/03/20 06:59:16;;;;;;;;;;;;;;;21.73;26.18;98215.72;4914018;29;1133;-74
2023/03/20 07:01:43;;;;;;;;;;;;;;;21.83;26.27;98211.84;4913978;29;1911;-73
2023/03/20 07:04:08;;;;;;;;;;;;;;;22.00;25.61;98228.84;4897944;29;1250;-73
2023/03/20 07:06:40;;;;;;;;;;;;;;;22.05;25.62;98231.94;4926991;29;1224;-74
2023/03/20 07:09:06;;;;;;;;;;;;;;;21.98;25.59;98237.00;4955360;29;998;-74
2023/03/20 07:11:33;;;;;;;;;;;;;;;21.57;26.44;98230.66;4961417;28;1308;-73
2023/03/20 07:14:00;;;;;;;;;;;;;;;21.41;26.59;98229.81;4962793;28;1184;-74
2023/03/20 07:16:58;;;;;;;;;;;;;;;22.02;25.49;98234.84;4916714;29;1025;-73
2023/03/20 07:19:24;;;;;;;;;;;;;;;22.01;25.41;98233.25;4901455;29;1012;-73
2023/03/20 07:21:55;;;;;;;;;;;;;;;21.95;25.75;98227.31;4901199;29;1895;-74
2023/03/20 07:24:21;;;;;;;;;;;;;;;22.07;25.59;98231.47;4901352;29;1054;-74
2023/03/20 07:26:47;;;;;;;;;;;;;;;21.88;25.65;98232.38;4900987;29;1270;-73
2023/03/20 07:29:12;;;;;;;;;;;;;;;21.59;26.19;98224.53;4901173;29;1109;-74
2023/03/20 07:31:39;;;;;;;;;;;;;;;21.55;26.46;98232.31;4901161;29;1409;-74
2023/03/20 07:34:15;;;;;;;;;;;;;;;21.85;25.95;98226.34;4904446;29;1724;-74
2023/03/20 07:36:41;;;;;;;;;;;;;;;21.98;25.72;98237.00;4904412;29;1176;-73
2023/03/20 07:39:08;;;;;;;;;;;;;;;21.85;25.95;98223.50;4904475;29;1204;-74
2023/03/20 07:41:36;;;;;;;;;;;;;;;21.62;25.88;98220.84;4904721;29;1973;-74
2023/03/20 07:44:07;;;;;;;;;;;;;;;21.57;26.26;98218.53;4904468;29;1185;-73
2023/03/20 07:46:51;;;;;;;;;;;;;;;21.38;26.35;98222.19;4903859;29;1228;-75
2023/03/20 07:49:17;;;;;;;;;;;;;;;21.72;26.13;98225.44;4904077;29;962;-74
2023/03/20 07:51:44;;;;;;;;;;;;;;;22.03;25.39;98216.63;4925676;28;1278;-75
2023/03/20 07:54:10;;;;;;;;;;;;;;;22.00;25.54;98228.84;4926054;29;1225;-74
2023/03/20 07:56:36;;;;;;;;;;;;;;;22.23;25.27;98230.72;4942375;29;1006;-75
2023/03/20 07:59:01;;;;;;;;;;;;;;;21.68;26.12;98230.41;4926296;29;1209;-75
2023/03/20 08:01:27;;;;;;;;;;;;;;;21.62;25.96;98220.84;4926143;29;1907;-75
2023/03/20 08:03:52;;;;;;;;;;;;;;;21.46;26.35;98223.63;4926315;29;1810;-74
2023/03/20 08:06:18;;;;;;;;;;;;;;;21.85;25.89;98223.50;4919420;29;998;-75
2023/03/20 08:08:44;;;;;;;;;;;;;;;22.27;25.32;98226.53;4919602;29;1005;-75
2023/03/20 08:11:09;;;;;;;;;;;;;;;22.08;25.61;98230.25;4919679;29;970;-75
2023/03/20 08:13:35;;;;;;;;;;;;;;;21.77;25.84;98227.75;4903150;29;1109;-75
2023/03/20 08:16:00;;;;;;;;;;;;;;;21.49;26.48;98217.09;4919691;29;939;-75
2023/03/20 08:18:26;;;;;;;;;;;;;;;21.44;26.63;98226.09;4903461;29;1103;-75
2023/03/20 08:20:51;;;;;;;;;;;;;;;21.96;25.77;98228.91;4903443;29;1982;-75
2023/03/20 08:23:17;;;;;;;;;;;;;;;22.14;25.38;98228.50;4919310;29;1036;-75
2023/03/20 08:25:48;;;;;;;;;;;;;;;22.38;25.10;98228.31;4919048;29;956;-75
2023/03/20 08:28:14;;;;;;;;;;;;;;;21.85;25.86;98226.34;4907925;29;1046;-75
2023/03/20 08:30:40;;;;;;;;;;;;;;;21.39;26.46;98240.75;4941224;29;1379;-76
2023/03/20 08:33:05;;;;;;;;;;;;;;;21.51;26.47;98237.28;4957668;29;967;-73
2023/03/20 08:35:31;;;;;;;;;;;;;;;21.77;25.82;98241.94;4940919;29;1000;-75
2023/03/20 08:37:56;;;;;;;;;;;;;;;22.15;25.51;98247.09;4939859;28;1161;-75
2023/03/20 08:40:22;;;;;;;;;;;;;;;22.44;24.95;98247.19;4976061;28;1968;-75
2023/03/20 08:42:47;;;;;;;;;;;;;;;22.06;25.38;98239.19;4975819;28;976;-75
2023/03/20 08:45:13;;;;;;;;;;;;;;;21.65;25.81;98242.59;4960334;28;1088;-74
2023/03/20 08:47:38;;;;;;;;;;;;;;;21.52;26.03;98244.53;4960340;28;1128;-75
2023/03/20 08:50:04;;;;;;;;;;;;;;;21.58;26.30;98237.09;4959978;28;1107;-75
2023/03/20 08:52:30;;;;;;;;;;;;;;;21.69;26.09;98240.47;4976346;28;973;-75
2023/03/20 08:54:55;;;;;;;;;;;;;;;22.31;25.17;98243.47;4962201;28;976;-75
2023/03/20 08:57:21;;;;;;;;;;;;;;;22.17;25.09;98244.63;4998120;28;920;-75
2023/03/20 08:59:46;;;;;;;;;;;;;;;21.76;25.88;98231.84;4998106;28;1035;-75
2023/03/20 09:02:12;;;;;;;;;;;;;;;21.66;25.95;98232.88;4998004;28;1906;-76
2023/03/20 09:04:37;;;;;;;;;;;;;;;21.73;25.91;98232.72;4979956;28;1518;-75
2023/03/20 09:07:03;;;;;;;;;;;;;;;21.91;25.57;98234.31;4997777;28;894;-74
2023/03/20 09:09:28;;;;;;;;;;;;;;;22.17;25.48;98233.28;4998078;28;874;-75
2023/03/20 09:11:55;;;;;;;;;;;;;;;22.19;25.39;98225.16;4964535;28;1139;-75
2023/03/20 09:14:21;;;;;;;;;;;;;;;21.81;25.76;98228.47;4980196;28;988;-74
2023/03/20 09:16:47;;;;;;;;;;;;;;;21.65;26.17;98224.81;4964417;28;936;-75
2023/03/20 09:19:12;;;;;;;;;;;;;;;21.49;26.33;98222.75;4963994;28;1071;-74
2023/03/20 09:21:38;;;;;;;;;;;;;;;21.92;25.63;98222.56;4963878;28;1899;-75
2023/03/20 09:24:04;;;;;;;;;;;;;;;22.15;25.30;98224.44;4997481;28;1010;-75
2023/03/20 09:26:29;;;;;;;;;;;;;;;22.04;25.54;98224.66;4980009;28;949;-75
2023/03/20 09:28:55;;;;;;;;;;;;;;;21.64;26.12;98224.00;4997450;28;888;-75
2023/03/20 09:31:21;;;;;;;;;;;;;;;21.66;26.21;98226.41;4980083;28;1049;-74
2023/03/20 09:33:47;;;;;;;;;;;;;;;21.70;26.18;98212.97;4997644;28;895;-74
2023/03/20 09:36:14;;;;;;;;;;;;;;;21.98;25.62;98217.16;4979678;28;1071;-75
2023/03/20 09:38:41;;;;;;;;;;;;;;;21.95;25.70;98220.88;4963795;28;886;-75
2023/03/20 09:41:06;;;;;;;;;;;;;;;21.98;25.75;98217.16;4963754;28;1973;-76
2023/03/20 09:43:38;;;;;;;;;;;;;;;21.51;26.26;98220.28;4963908;28;1112;-75
2023/03/20 09:46:07;;;;;;;;;;;;;;;21.29;26.86;98215.06;4997014;28;939;-75
2023/03/20 09:48:40;;;;;;;;;;;;;;;21.72;26.57;98219.00;4979622;28;1196;-75
2023/03/20 09:51:21;;;;;;;;;;;;;;;21.83;26.10;98219.53;4979796;28;909;-75
2023/03/20 09:53:47;;;;;;;;;;;;;;;22.38;25.31;98211.28;4963508;28;927;-74
2023/03/20 09:56:20;;;;;;;;;;;;;;;21.98;25.70;98203.00;4979119;28;924;-75
2023/03/20 09:58:48;;;;;;;;;;;;;;;21.69;26.11;98200.84;4979334;28;930;-74
2023/03/20 10:01:13;;;;;;;;;;;;;;;21.56;26.34;98199.94;4963250;28;2060;-75
2023/03/20 10:03:43;;;;;;;;;;;;;;;21.73;26.37;98198.72;4963179;28;1245;-74
2023/03/20 10:06:12;;;;;;;;;;;;;;;21.73;26.10;98190.22;4979301;28;943;-75
2023/03/20 10:08:38;;;;;;;;;;;;;;;22.02;25.81;98186.66;4904725;29;913;-75
2023/03/20 10:11:03;;;;;;;;;;;;;;;21.95;25.84;98192.53;4920691;29;1162;-75
2023/03/20 10:13:40;;;;;;;;;;;;;;;21.74;26.19;98188.97;4936233;29;1022;-75
2023/03/20 10:16:24;;;;;;;;;;;;;;;21.67;26.23;98183.50;4929166;29;2159;-75
2023/03/20 10:19:07;;;;;;;;;;;;;;;21.76;26.12;98180.84;4936232;29;1021;-75
2023/03/20 10:21:38;;;;;;;;;;;;;;;22.02;25.71;98178.16;4935979;29;1907;-75
2023/03/20 10:24:04;;;;;;;;;;;;;;;21.95;26.05;98178.38;4905300;29;1239;-75
2023/03/20 10:26:33;;;;;;;;;;;;;;;22.19;25.58;98179.81;4936410;29;1095;-75
2023/03/20 10:28:59;;;;;;;;;;;;;;;21.75;25.98;98182.06;4936141;29;1022;-75
2023/03/20 10:31:37;;;;;;;;;;;;;;;21.44;26.61;98183.63;4920683;29;1211;-74
2023/03/20 10:34:21;;;;;;;;;;;;;;;21.51;26.67;98178.63;4936155;29;959;-75
2023/03/20 10:36:53;;;;;;;;;;;;;;;21.83;26.16;98179.88;4936223;29;1037;-75
2023/03/20 10:39:37;;;;;;;;;;;;;;;21.91;25.81;98174.81;4935877;29;974;-76
2023/03/20 10:42:03;;;;;;;;;;;;;;;22.14;25.39;98177.50;4935878;29;1910;-75
2023/03/20 10:44:30;;;;;;;;;;;;;;;21.68;25.99;98182.25;4920156;29;1083;-74
2023/03/20 10:46:56;;;;;;;;;;;;;;;21.51;26.37;98175.00;4936372;29;947;-75
2023/03/20 10:49:27;;;;;;;;;;;;;;;22.01;25.75;98173.75;4939453;29;1109;-75
2023/03/20 10:51:54;;;;;;;;;;;;;;;22.00;25.76;98169.34;4955083;29;1012;-75
2023/03/20 10:54:22;;;;;;;;;;;;;;;22.01;25.82;98168.88;4923248;29;1344;-75
2023/03/20 10:56:48;;;;;;;;;;;;;;;21.95;25.63;98158.53;4955126;29;987;-75
2023/03/20 10:59:21;;;;;;;;;;;;;;;21.69;26.09;98160.41;4939144;28;1078;-75
2023/03/20 11:01:47;;;;;;;;;;;;;;;21.62;26.09;98158.53;4916744;29;1993;-75
2023/03/20 11:04:12;;;;;;;;;;;;;;;21.72;26.27;98151.81;4901053;29;1142;-75
2023/03/20 11:06:42;;;;;;;;;;;;;;;21.93;26.18;98155.34;4918310;29;949;-75
2023/03/20 11:09:17;;;;;;;;;;;;;;;22.20;25.69;98150.22;4920437;29;961;-75
2023/03/20 11:11:43;;;;;;;;;;;;;;;21.95;25.92;98148.00;4920835;29;1002;-75
2023/03/20 11:14:09;;;;;;;;;;;;;;;21.73;26.14;98146.94;4920671;29;999;-75
2023/03/20 11:16:39;;;;;;;;;;;;;;;21.63;26.36;98148.81;4931768;29;1260;-75
2023/03/20 11:19:05;;;;;;;;;;;;;;;21.84;26.16;98142.59;4939492;29;1218;-76
2023/03/20 11:21:31;;;;;;;;;;;;;;;22.26;25.33;98145.59;4882563;29;2005;-75
2023/03/20 11:23:56;;;;;;;;;;;;;;;22.42;25.16;98141.91;4882556;29;1089;-75
2023/03/20 11:26:38;;;;;;;;;;;;;;;21.97;25.63;98133.41;4882836;29;1074;-75
2023/03/20 11:29:04;;;;;;;;;;;;;;;21.56;26.49;98141.28;4867177;29;1052;-75
2023/03/20 11:31:32;;;;;;;;;;;;;;;21.67;26.39;98138.19;4882717;29;1016;-75
2023/03/20 11:34:03;;;;;;;;;;;;;;;22.07;25.94;98129.47;4904645;29;1025;-75
2023/03/20 11:36:29;;;;;;;;;;;;;;;21.96;26.10;98126.13;4920059;29;960;-75
2023/03/20 11:39:00;;;;;;;;;;;;;;;22.24;25.67;98127.44;4920258;29;1063;-75
2023/03/20 11:41:26;;;;;;;;;;;;;;;22.02;25.97;98125.16;4919889;29;1919;-75
2023/03/20 11:43:52;;;;;;;;;;;;;;;21.85;25.89;98124.38;4920307;29;934;-75
2023/03/20 11:46:18;;;;;;;;;;;;;;;21.91;25.74;98123.81;4888460;29;1075;-75
2023/03/20 11:48:46;;;;;;;;;;;;;;;21.96;26.04;98114.78;4904384;29;1145;-75
2023/03/20 11:51:15;;;;;;;;;;;;;;;22.18;25.57;98121.53;4938289;29;963;-75
2023/03/20 11:53:42;;;;;;;;;;;;;;;22.05;25.83;98112.91;4997473;28;1067;-75
2023/03/20 11:56:10;;;;;;;;;;;;;;;21.83;25.89;98112.69;4982191;28;844;-75
2023/03/20 11:58:36;;;;;;;;;;;;;;;21.72;26.19;98105.72;4965850;28;1259;-75
2023/03/20 12:01:02;;;;;;;;;;;;;;;21.56;26.29;98115.00;4981774;28;1975;-74
2023/03/20 12:03:41;;;;;;;;;;;;;;;21.73;26.46;98108.09;4981792;28;1384;-74
2023/03/20 12:06:17;;;;;;;;;;;;;;;21.89;26.05;98095.16;4981391;28;935;-75
2023/03/20 12:08:45;;;;;;;;;;;;;;;21.97;25.71;98093.75;4981864;28;925;-74
2023/03/20 12:11:16;;;;;;;;;;;;;;;21.98;25.82;98089.66;4981518;28;1072;-75
2023/03/20 12:13:43;;;;;;;;;;;;;;;21.88;25.99;98096.41;4998684;28;899;-74
2023/03/20 12:16:12;;;;;;;;;;;;;;;21.64;26.14;98093.75;4998917;28;916;-75
2023/03/20 12:18:40;;;;;;;;;;;;;;;21.83;26.27;98084.38;4980776;28;949;-75
2023/03/20 12:21:24;;;;;;;;;;;;;;;22.07;25.91;98086.97;4998977;28;1976;-76
2023/03/20 12:23:52;;;;;;;;;;;;;;;22.09;25.68;98084.50;4960943;28;1264;-75
2023/03/20 12:26:26;;;;;;;;;;;;;;;22.21;25.63;98080.94;4960676;28;1086;-75
2023/03/20 12:28:51;;;;;;;;;;;;;;;22.18;25.43;98092.41;4960497;28;925;-75
2023/03/20 12:31:22;;;;;;;;;;;;;;;21.84;26.14;98080.28;4976857;28;970;-75
2023/03/20 12:34:01;;;;;;;;;;;;;;;21.79;25.95;98072.31;4922093;29;1093;-75
2023/03/20 12:36:33;;;;;;;;;;;;;;;21.46;26.52;98070.78;4922090;29;922;-75
2023/03/20 12:38:58;;;;;;;;;;;;;;;21.92;26.14;98074.44;4906377;29;1002;-75
2023/03/20 12:41:25;;;;;;;;;;;;;;;21.97;25.77;98071.88;4922256;29;1919;-75
2023/03/20 12:44:00;;;;;;;;;;;;;;;22.23;25.58;98069.19;4921924;29;952;-75
2023/03/20 12:46:25;;;;;;;;;;;;;;;21.78;26.23;98065.06;4937807;29;905;-75
2023/03/20 12:48:53;;;;;;;;;;;;;;;21.67;26.23;98069.44;4938069;29;963;-75
2023/03/20 12:51:25;;;;;;;;;;;;;;;21.71;26.34;98059.59;4938048;29;932;-75
2023/03/20 12:53:52;;;;;;;;;;;;;;;22.04;25.69;98059.53;4921968;29;1047;-75
2023/03/20 12:56:36;;;;;;;;;;;;;;;22.06;25.81;98057.03;4922154;29;967;-75
2023/03/20 12:59:05;;;;;;;;;;;;;;;21.97;25.71;98054.06;4937733;29;969;-75
2023/03/20 13:01:31;;;;;;;;;;;;;;;21.94;25.57;98049.28;4921975;29;1994;-75
2023/03/20 13:04:17;;;;;;;;;;;;;;;21.69;26.12;98055.63;4924814;29;1088;-76
2023/03/20 13:06:45;;;;;;;;;;;;;;;21.63;26.80;98044.03;4880488;29;1441;-75
2023/03/20 13:09:26;;;;;;;;;;;;;;;21.89;25.80;98039.28;4880729;29;1054;-74
2023/03/20 13:11:57;;;;;;;;;;;;;;;22.02;25.68;98045.00;4880956;29;1256;-75
2023/03/20 13:15:01;;;;;;;;;;;;;;;21.72;26.30;98035.72;4886400;29;1023;-74